createdAt,value
2023-04-15T00:01:11.742Z,71.12
2023-04-15T00:03:38.774Z,71.14
2023-04-15T00:06:06.062Z,70.84
2023-04-15T00:08:33.273Z,71.43
2023-04-15T00:11:03.148Z,72.08
2023-04-15T00:13:29.985Z,71.82
2023-04-15T00:15:56.761Z,71.09
2023-04-15T00:18:24.321Z,70.64
2023-04-15T00:20:51.087Z,70.79
2023-04-15T00:23:18.034Z,70.68
2023-04-15T00:25:44.949Z,71.11
2023-04-15T00:28:11.634Z,71.05
2023-04-15T00:30:38.933Z,71.33
2023-04-15T00:33:05.865Z,71.17
2023-04-15T00:35:32.821Z,71.53
2023-04-15T00:37:59.888Z,71.18
2023-04-15T00:40:27.754Z,70.84
2023-04-15T00:42:54.482Z,70.75
2023-04-15T00:45:21.318Z,70.90
2023-04-15T00:47:48.295Z,71.37
2023-04-15T00:50:15.038Z,71.39
2023-04-15T00:52:41.860Z,71.70
2023-04-15T00:55:09.806Z,72.04
2023-04-15T00:57:36.962Z,71.84
2023-04-15T01:00:05.712Z,71.82
2023-04-15T01:02:33.327Z,71.83
2023-04-15T01:05:02.533Z,71.93
2023-04-15T01:07:29.361Z,72.00
2023-04-15T01:09:56.065Z,71.72
2023-04-15T01:12:23.199Z,71.50
2023-04-15T01:14:50.007Z,71.58
2023-04-15T01:17:17.736Z,71.45
2023-04-15T01:19:44.442Z,71.80
2023-04-15T01:22:11.363Z,70.86
2023-04-15T01:24:38.543Z,70.27
2023-04-15T01:27:05.684Z,70.54
2023-04-15T01:29:35.694Z,69.76
2023-04-15T01:32:02.386Z,70.03
2023-04-15T01:34:47.763Z,70.15
2023-04-15T01:37:33.126Z,70.92
2023-04-15T01:39:59.778Z,70.90
2023-04-15T01:42:27.626Z,70.59
2023-04-15T01:44:55.764Z,70.71
2023-04-15T01:47:23.805Z,71.31
2023-04-15T01:49:51.817Z,70.90
2023-04-15T01:52:19.787Z,70.60
2023-04-15T01:54:47.802Z,71.15
2023-04-15T01:57:15.815Z,70.97
2023-04-15T01:59:43.810Z,70.92
2023-04-15T02:02:12.546Z,70.59
2023-04-15T02:04:40.567Z,71.61
2023-04-15T02:07:08.691Z,71.40
2023-04-15T02:09:36.815Z,71.37
2023-04-15T02:12:04.814Z,71.66
2023-04-15T02:14:32.797Z,71.43
2023-04-15T02:17:07.240Z,71.15
2023-04-15T02:19:35.785Z,71.19
2023-04-15T02:22:04.740Z,70.91
2023-04-15T02:24:33.361Z,71.14
2023-04-15T02:27:02.186Z,70.80
2023-04-15T02:29:32.243Z,70.54
2023-04-15T02:32:02.149Z,70.49
2023-04-15T02:34:31.458Z,70.22
2023-04-15T02:36:59.469Z,70.37
2023-04-15T02:39:27.610Z,70.61
2023-04-15T02:41:55.721Z,70.68
2023-04-15T02:44:24.909Z,70.73
2023-04-15T02:46:56.744Z,71.11
2023-04-15T02:49:25.243Z,71.37
2023-04-15T02:51:53.428Z,71.14
2023-04-15T02:54:26.061Z,71.03
2023-04-15T02:56:56.099Z,71.55
2023-04-15T02:59:24.193Z,71.66
2023-04-15T03:01:52.449Z,71.65
2023-04-15T03:04:20.510Z,71.54
2023-04-15T03:06:48.520Z,71.29
2023-04-15T03:09:16.654Z,71.50
2023-04-15T03:11:44.878Z,71.48
2023-04-15T03:14:12.855Z,71.83
2023-04-15T03:16:44.342Z,71.54
2023-04-15T03:19:14.431Z,71.15
2023-04-15T03:21:44.315Z,71.37
2023-04-15T03:24:12.351Z,70.80
2023-04-15T03:26:40.393Z,71.44
2023-04-15T03:29:14.088Z,71.99
2023-04-15T03:31:42.511Z,71.94
2023-04-15T03:34:10.552Z,72.24
2023-04-15T03:36:38.772Z,72.33
2023-04-15T03:39:06.692Z,72.23
2023-04-15T03:41:34.643Z,72.52
2023-04-15T03:44:02.678Z,72.21
2023-04-15T03:46:30.712Z,72.32
2023-04-15T03:48:59.087Z,72.77
2023-04-15T03:51:27.554Z,72.53
2023-04-15T03:53:56.044Z,73.07
2023-04-15T03:56:24.096Z,73.07
2023-04-15T03:58:52.002Z,72.91
2023-04-15T04:01:19.908Z,72.75
2023-04-15T04:03:48.170Z,72.66
2023-04-15T04:06:16.837Z,72.54
2023-04-15T04:08:44.800Z,72.46
2023-04-15T04:11:12.937Z,72.81
2023-04-15T04:13:41.025Z,72.95
2023-04-15T04:16:09.000Z,73.16
2023-04-15T04:18:36.966Z,72.90
2023-04-15T04:21:05.357Z,72.70
2023-04-15T04:23:33.346Z,73.23
2023-04-15T04:26:01.282Z,73.27
2023-04-15T04:28:29.315Z,72.92
2023-04-15T04:30:57.246Z,72.68
2023-04-15T04:33:25.214Z,72.55
2023-04-15T04:35:53.075Z,72.56
2023-04-15T04:38:21.066Z,72.21
2023-04-15T04:40:49.072Z,72.34
2023-04-15T04:43:17.041Z,72.63
2023-04-15T04:45:45.026Z,72.83
2023-04-15T04:48:13.060Z,73.02
2023-04-15T04:50:41.152Z,73.22
2023-04-15T04:53:09.077Z,73.31
2023-04-15T04:55:37.039Z,73.21
2023-04-15T04:58:04.972Z,73.09
2023-04-15T05:00:33.020Z,72.85
2023-04-15T05:03:01.224Z,72.59
2023-04-15T05:05:29.421Z,72.80
2023-04-15T05:07:57.383Z,72.80
2023-04-15T05:10:25.343Z,72.85
2023-04-15T05:12:53.278Z,72.98
2023-04-15T05:15:21.463Z,72.88
2023-04-15T05:17:49.433Z,73.05
2023-04-15T05:20:17.472Z,73.39
2023-04-15T05:22:45.382Z,73.83
2023-04-15T05:25:13.950Z,73.69
2023-04-15T05:27:42.098Z,73.51
2023-04-15T05:30:11.626Z,73.55
2023-04-15T05:32:41.562Z,73.37
2023-04-15T05:35:09.705Z,73.39
2023-04-15T05:37:37.644Z,74.15
2023-04-15T05:40:06.161Z,73.15
2023-04-15T05:42:35.040Z,72.58
2023-04-15T05:45:05.453Z,72.88
2023-04-15T05:47:33.498Z,73.04
2023-04-15T05:50:01.589Z,72.61
2023-04-15T05:52:29.521Z,73.94
2023-04-15T05:54:57.482Z,73.64
2023-04-15T05:57:25.708Z,73.82
2023-04-15T05:59:53.774Z,72.51
2023-04-15T06:02:22.146Z,72.43
2023-04-15T06:04:50.136Z,72.48
2023-04-15T06:07:18.150Z,73.00
2023-04-15T06:09:46.096Z,72.91
2023-04-15T06:12:14.214Z,72.62
2023-04-15T06:14:42.185Z,73.02
2023-04-15T06:17:10.306Z,73.19
2023-04-15T06:19:38.555Z,72.91
2023-04-15T06:22:07.280Z,72.18
2023-04-15T06:24:36.991Z,72.46
2023-04-15T06:27:04.937Z,72.57
2023-04-15T06:29:32.862Z,72.55
2023-04-15T06:32:01.025Z,72.36
2023-04-15T06:34:28.941Z,72.73
2023-04-15T06:36:57.458Z,72.97
2023-04-15T06:39:25.576Z,72.94
2023-04-15T06:41:53.565Z,73.07
2023-04-15T06:44:22.907Z,72.88
2023-04-15T06:46:50.894Z,72.95
2023-04-15T06:49:18.809Z,73.07
2023-04-15T06:51:46.817Z,72.97
2023-04-15T06:54:14.793Z,72.81
2023-04-15T06:56:42.996Z,72.86
2023-04-15T06:59:10.909Z,73.16
2023-04-15T07:01:38.806Z,73.01
2023-04-15T07:04:06.963Z,72.71
2023-04-15T07:06:35.688Z,72.90
2023-04-15T07:09:05.426Z,72.46
2023-04-15T07:11:33.802Z,72.80
2023-04-15T07:14:01.750Z,72.55
2023-04-15T07:16:30.188Z,72.89
2023-04-15T07:18:58.316Z,73.25
2023-04-15T07:21:27.542Z,73.12
2023-04-15T07:23:55.606Z,72.69
2023-04-15T07:26:23.633Z,72.85
2023-04-15T07:28:51.559Z,72.72
2023-04-15T07:31:19.565Z,73.39
2023-04-15T07:33:47.612Z,72.95
2023-04-15T07:36:15.544Z,72.83
2023-04-15T07:38:43.501Z,72.65
2023-04-15T07:41:12.058Z,72.98
2023-04-15T07:43:39.987Z,72.69
2023-04-15T07:46:08.303Z,72.42
2023-04-15T07:48:56.124Z,72.25
2023-04-15T07:51:27.246Z,71.86
2023-04-15T07:53:55.163Z,72.34
2023-04-15T07:56:23.147Z,72.12
2023-04-15T07:58:51.537Z,71.71
2023-04-15T08:01:19.500Z,71.95
2023-04-15T08:03:48.589Z,71.90
2023-04-15T08:06:16.811Z,71.58
2023-04-15T08:08:44.735Z,71.52
2023-04-15T08:11:13.034Z,70.98
2023-04-15T08:13:41.046Z,70.95
2023-04-15T08:16:25.338Z,70.60
2023-04-15T08:18:55.416Z,70.61
2023-04-15T08:21:24.505Z,71.01
2023-04-15T08:23:53.720Z,70.77
2023-04-15T08:26:22.165Z,70.76
2023-04-15T08:28:50.385Z,70.63
2023-04-15T08:31:18.982Z,70.46
2023-04-15T08:33:46.942Z,70.58
2023-04-15T08:36:15.012Z,70.38
2023-04-15T08:38:44.292Z,70.32
2023-04-15T08:41:18.635Z,70.35
2023-04-15T08:43:53.636Z,70.71
2023-04-15T08:46:21.939Z,70.88
2023-04-15T08:48:50.028Z,70.92
2023-04-15T08:51:18.637Z,70.86
2023-04-15T08:53:47.453Z,71.00
2023-04-15T08:56:18.730Z,71.04
2023-04-15T08:58:46.850Z,70.53
2023-04-15T09:01:15.109Z,70.54
2023-04-15T09:03:44.209Z,70.82
2023-04-15T09:06:12.278Z,70.68
2023-04-15T09:08:40.318Z,71.10
2023-04-15T09:11:08.393Z,71.37
2023-04-15T09:13:36.586Z,71.13
2023-04-15T09:16:05.998Z,70.03
2023-04-15T09:18:35.634Z,69.77
2023-04-15T09:21:08.861Z,67.46
2023-04-15T09:23:40.879Z,65.88
2023-04-15T09:26:10.098Z,67.33
2023-04-15T09:28:42.430Z,65.88
2023-04-15T09:31:11.215Z,65.52
2023-04-15T09:33:58.711Z,63.00
2023-04-15T09:36:29.914Z,64.51
2023-04-15T09:38:58.895Z,62.44
2023-04-15T09:41:27.356Z,63.62
2023-04-15T09:43:55.380Z,62.83
2023-04-15T09:46:44.246Z,62.35
2023-04-15T09:49:12.945Z,64.01
2023-04-15T09:51:42.217Z,64.41
2023-04-15T09:54:12.715Z,63.88
2023-04-15T09:56:43.669Z,61.65
2023-04-15T09:59:12.039Z,63.67
2023-04-15T10:01:41.134Z,63.00
2023-04-15T10:04:09.231Z,61.17
2023-04-15T10:06:37.703Z,61.29
2023-04-15T10:09:06.577Z,61.38
2023-04-15T10:11:35.213Z,60.41
2023-04-15T10:14:04.237Z,59.42
2023-04-15T10:16:33.368Z,59.47
2023-04-15T10:19:02.204Z,59.51
2023-04-15T10:21:30.752Z,58.63
2023-04-15T10:23:58.657Z,56.21
2023-04-15T10:26:26.699Z,57.35
2023-04-15T10:28:54.589Z,59.01
2023-04-15T10:31:23.139Z,58.14
2023-04-15T10:33:51.447Z,58.30
2023-04-15T10:36:20.100Z,58.68
2023-04-15T10:38:48.054Z,57.91
2023-04-15T10:41:34.593Z,58.45
2023-04-15T10:44:04.979Z,56.13
2023-04-15T10:46:44.300Z,58.08
2023-04-15T10:49:14.463Z,56.99
2023-04-15T10:51:49.298Z,54.87
2023-04-15T10:54:31.423Z,56.49
2023-04-15T10:57:02.665Z,56.40
2023-04-15T10:59:31.228Z,55.97
2023-04-15T11:02:04.490Z,55.26
2023-04-15T11:04:51.429Z,54.87
2023-04-15T11:07:47.194Z,53.93
2023-04-15T11:10:17.730Z,55.14
2023-04-15T11:12:46.559Z,55.91
2023-04-15T11:15:31.010Z,54.27
2023-04-15T11:18:09.428Z,55.66
2023-04-15T11:20:38.372Z,54.42
2023-04-15T11:23:13.802Z,54.13
2023-04-15T11:25:43.643Z,54.81
2023-04-15T11:28:13.258Z,54.88
2023-04-15T11:30:42.831Z,53.43
2023-04-15T11:33:14.840Z,53.15
2023-04-15T11:35:43.385Z,53.02
2023-04-15T11:38:13.641Z,53.85
2023-04-15T11:40:45.331Z,51.98
2023-04-15T11:43:15.955Z,49.03
2023-04-15T11:45:58.011Z,47.61
2023-04-15T11:48:28.732Z,47.61
2023-04-15T11:51:01.854Z,48.73
2023-04-15T11:53:48.603Z,49.67
2023-04-15T11:56:24.206Z,48.92
2023-04-15T11:58:59.497Z,47.90
2023-04-15T12:01:36.836Z,47.25
2023-04-15T12:04:14.341Z,47.60
2023-04-15T12:06:41.570Z,47.70
2023-04-15T12:09:15.612Z,48.30
2023-04-15T12:11:55.595Z,48.98
2023-04-15T12:14:25.952Z,48.91
2023-04-15T12:16:54.629Z,50.49
2023-04-15T12:19:41.860Z,50.62
2023-04-15T12:22:13.802Z,50.01
2023-04-15T12:24:41.125Z,49.43
2023-04-15T12:27:17.456Z,50.17
2023-04-15T12:29:44.450Z,51.27
2023-04-15T12:32:13.146Z,51.95
2023-04-15T12:34:44.687Z,51.28
2023-04-15T12:37:13.181Z,48.22
2023-04-15T12:39:44.837Z,49.60
2023-04-15T12:42:12.592Z,49.18
2023-04-15T12:44:40.052Z,49.11
2023-04-15T12:47:07.660Z,49.60
2023-04-15T12:49:34.680Z,50.38
2023-04-15T12:52:02.451Z,50.48
2023-04-15T12:54:30.156Z,50.22
2023-04-15T12:56:57.613Z,50.89
2023-04-15T12:59:25.630Z,51.06
2023-04-15T13:01:53.440Z,50.52
2023-04-15T13:04:20.788Z,50.74
2023-04-15T13:06:47.963Z,50.63
2023-04-15T13:09:15.528Z,50.66
2023-04-15T13:11:42.516Z,50.84
2023-04-15T13:14:16.075Z,51.23
2023-04-15T13:16:46.033Z,51.22
2023-04-15T13:19:15.992Z,51.70
2023-04-15T13:21:42.965Z,52.17
2023-04-15T13:24:09.919Z,52.44
2023-04-15T13:26:36.711Z,52.56
2023-04-15T13:29:07.077Z,52.78
2023-04-15T13:31:34.138Z,52.76
2023-04-15T13:34:07.052Z,52.81
2023-04-15T13:36:33.959Z,53.07
2023-04-15T13:39:00.905Z,53.25
2023-04-15T13:41:27.576Z,54.02
2023-04-15T13:43:54.497Z,54.19
2023-04-15T13:46:21.422Z,54.37
2023-04-15T13:48:48.143Z,54.91
2023-04-15T13:51:15.473Z,55.84
2023-04-15T13:53:42.303Z,55.08
2023-04-15T13:56:10.268Z,55.46
2023-04-15T13:58:37.643Z,55.52
2023-04-15T14:01:06.089Z,55.30
2023-04-15T14:03:34.378Z,55.88
2023-04-15T14:06:01.453Z,57.21
2023-04-15T14:08:28.163Z,58.36
2023-04-15T14:10:54.859Z,58.47
2023-04-15T14:13:21.833Z,59.26
2023-04-15T14:15:48.624Z,59.13
2023-04-15T14:18:15.347Z,59.73
2023-04-15T14:20:42.181Z,60.81
2023-04-15T14:23:09.213Z,61.75
2023-04-15T14:25:36.125Z,61.14
2023-04-15T14:28:03.497Z,61.94
2023-04-15T14:30:30.673Z,62.22
2023-04-15T14:32:57.615Z,62.30
2023-04-15T14:35:26.495Z,62.14
2023-04-15T14:37:54.009Z,62.56
2023-04-15T14:40:20.790Z,63.06
2023-04-15T14:42:47.557Z,63.36
2023-04-15T14:45:14.364Z,62.91
2023-04-15T14:47:41.185Z,63.59
2023-04-15T14:50:08.382Z,63.10
2023-04-15T14:52:38.796Z,63.81
2023-04-15T14:55:10.314Z,64.29
2023-04-15T14:57:39.861Z,63.95
2023-04-15T15:00:07.856Z,63.54
2023-04-15T15:05:04.870Z,63.79
2023-04-15T15:07:31.709Z,64.63
2023-04-15T15:09:58.550Z,64.96
2023-04-15T15:12:25.521Z,67.94
2023-04-15T15:14:52.620Z,65.55
2023-04-15T15:17:19.336Z,67.49
2023-04-15T15:19:46.143Z,66.86
2023-04-15T15:22:12.878Z,67.35
2023-04-15T15:24:39.578Z,66.94
2023-04-15T15:27:06.376Z,66.58
2023-04-15T15:29:33.023Z,66.56
2023-04-15T15:31:59.771Z,69.06
2023-04-15T15:34:26.608Z,69.23
2023-04-15T15:36:55.125Z,68.76
2023-04-15T15:39:23.085Z,69.89
2023-04-15T15:41:50.532Z,69.63
2023-04-15T15:44:17.441Z,69.91
2023-04-15T15:46:44.292Z,71.62
2023-04-15T15:49:11.280Z,70.73
2023-04-15T15:51:38.031Z,71.42
2023-04-15T15:54:04.768Z,70.89
2023-04-15T15:56:31.535Z,71.01
2023-04-15T15:58:58.646Z,71.19
2023-04-15T16:01:26.705Z,71.61
2023-04-15T16:03:54.031Z,71.58
2023-04-15T16:06:21.031Z,72.02
2023-04-15T16:08:47.884Z,72.80
2023-04-15T16:11:14.857Z,71.42
2023-04-15T16:13:41.626Z,71.68
2023-04-15T16:16:08.531Z,72.43
2023-04-15T16:18:35.514Z,72.59
2023-04-15T16:21:02.259Z,71.61
2023-04-15T16:23:29.356Z,72.36
2023-04-15T16:25:56.256Z,72.21
2023-04-15T16:28:26.938Z,72.06
2023-04-15T16:30:55.052Z,72.13
2023-04-15T16:33:21.753Z,72.33
2023-04-15T16:35:48.485Z,72.33
2023-04-15T16:38:15.647Z,71.59
2023-04-15T16:40:42.526Z,72.22
2023-04-15T16:43:11.204Z,72.02
2023-04-15T16:45:38.576Z,71.47
2023-04-15T16:48:05.748Z,72.21
2023-04-15T16:50:32.535Z,72.27
2023-04-15T16:52:59.337Z,71.96
2023-04-15T16:55:26.220Z,71.85
2023-04-15T16:58:02.909Z,71.76
2023-04-15T17:00:31.671Z,72.05
2023-04-15T17:02:59.495Z,72.56
2023-04-15T17:05:30.524Z,71.77
2023-04-15T17:07:57.508Z,71.95
2023-04-15T17:10:24.341Z,72.13
2023-04-15T17:12:52.221Z,72.36
2023-04-15T17:15:20.625Z,71.30
2023-04-15T17:17:52.523Z,71.75
2023-04-15T17:20:19.613Z,71.87
2023-04-15T17:22:46.574Z,72.37
2023-04-15T17:25:14.720Z,72.23
2023-04-15T17:27:46.125Z,72.38
2023-04-15T17:30:17.451Z,73.11
2023-04-15T17:33:57.504Z,73.35
2023-04-15T17:36:11.199Z,73.42
2023-04-15T17:38:57.834Z,73.87
2023-04-15T17:41:44.464Z,74.07
2023-04-15T17:44:31.157Z,74.29
2023-04-15T17:47:17.914Z,74.62
2023-04-15T17:50:04.757Z,74.99
2023-04-15T17:52:51.510Z,75.75
2023-04-15T17:55:39.247Z,76.82
2023-04-15T17:58:27.429Z,77.85
2023-04-15T18:01:14.054Z,77.38
2023-04-15T18:04:00.926Z,77.89
2023-04-15T18:06:47.607Z,77.36
2023-04-15T18:09:34.292Z,78.83
2023-04-15T18:12:24.017Z,81.13
2023-04-15T18:15:11.423Z,79.67
2023-04-15T18:18:01.054Z,82.00
2023-04-15T18:20:28.098Z,80.51
2023-04-15T18:22:55.712Z,81.67
2023-04-15T18:25:22.461Z,80.52
2023-04-15T18:27:49.433Z,81.35
2023-04-15T18:30:16.173Z,83.22
2023-04-15T18:32:43.654Z,84.13
2023-04-15T18:35:10.598Z,82.02
2023-04-15T18:37:38.988Z,82.23
2023-04-15T18:40:07.585Z,82.40
2023-04-15T18:42:40.261Z,83.30
2023-04-15T18:45:18.277Z,84.67
2023-04-15T18:47:45.283Z,84.34
2023-04-15T18:50:12.467Z,83.65
2023-04-15T18:52:39.362Z,84.33
2023-04-15T18:55:06.560Z,84.26
2023-04-15T18:57:35.261Z,84.33
2023-04-15T19:00:02.882Z,84.92
2023-04-15T19:02:31.144Z,83.88
2023-04-15T19:04:58.075Z,84.65
2023-04-15T19:07:24.962Z,84.44
2023-04-15T19:09:52.169Z,85.75
2023-04-15T19:12:19.174Z,85.75
2023-04-15T19:14:46.061Z,85.80
2023-04-15T19:17:12.764Z,85.16
2023-04-15T19:19:39.695Z,84.75
2023-04-15T19:22:07.283Z,84.34
2023-04-15T19:24:34.130Z,84.28
2023-04-15T19:27:01.645Z,84.81
2023-04-15T19:29:28.825Z,84.72
2023-04-15T19:31:56.091Z,84.98
2023-04-15T19:34:23.109Z,84.66
2023-04-15T19:36:50.127Z,84.55
2023-04-15T19:39:17.561Z,84.53
2023-04-15T19:41:44.873Z,85.56
2023-04-15T19:44:14.451Z,84.28
2023-04-15T19:46:43.637Z,84.55
2023-04-15T19:49:10.850Z,84.41
2023-04-15T19:51:37.678Z,84.77
2023-04-15T19:54:04.541Z,85.32
2023-04-15T19:56:34.517Z,84.48
2023-04-15T19:59:02.273Z,85.38
2023-04-15T20:01:29.435Z,84.58
2023-04-15T20:03:56.486Z,84.23
2023-04-15T20:06:23.954Z,85.06
2023-04-15T20:08:51.841Z,84.88
2023-04-15T20:11:18.893Z,85.29
2023-04-15T20:13:45.723Z,84.54
2023-04-15T20:16:12.997Z,85.70
2023-04-15T20:18:39.956Z,84.08
2023-04-15T20:21:06.841Z,84.24
2023-04-15T20:23:35.956Z,84.85
2023-04-15T20:26:05.164Z,84.77
2023-04-15T20:28:32.132Z,84.28
2023-04-15T20:31:00.796Z,84.87
2023-04-15T20:33:27.710Z,83.85
2023-04-15T20:35:54.732Z,85.61
2023-04-15T20:38:21.865Z,84.24
2023-04-15T20:40:48.687Z,84.46
2023-04-15T20:43:18.384Z,84.49
2023-04-15T20:45:45.514Z,84.62
2023-04-15T20:48:12.538Z,84.52
2023-04-15T20:50:39.393Z,85.12
2023-04-15T20:53:06.230Z,84.64
2023-04-15T20:55:32.984Z,84.84
2023-04-15T20:57:59.686Z,84.45
2023-04-15T21:00:26.515Z,84.14
2023-04-15T21:02:53.471Z,84.98
2023-04-15T21:05:20.449Z,85.01
2023-04-15T21:07:47.273Z,84.91
2023-04-15T21:10:14.001Z,86.17
2023-04-15T21:12:41.134Z,85.03
2023-04-15T21:15:08.709Z,86.43
2023-04-15T21:17:35.749Z,85.29
2023-04-15T21:20:02.559Z,85.28
2023-04-15T21:22:29.523Z,85.27
2023-04-15T21:24:56.204Z,85.40
2023-04-15T21:27:22.983Z,86.16
2023-04-15T21:29:49.722Z,85.83
2023-04-15T21:32:16.568Z,86.13
2023-04-15T21:34:43.412Z,85.67
2023-04-15T21:37:10.295Z,85.53
2023-04-15T21:39:37.015Z,85.98
2023-04-15T21:42:03.773Z,85.65
2023-04-15T21:44:30.861Z,85.57
2023-04-15T21:46:57.626Z,85.64
2023-04-15T21:49:25.538Z,85.86
2023-04-15T21:51:52.352Z,85.33
2023-04-15T21:54:19.233Z,85.30
2023-04-15T21:56:47.621Z,85.28
2023-04-15T21:59:14.380Z,85.34
2023-04-15T22:01:41.108Z,85.18
2023-04-15T22:04:08.154Z,85.55
2023-04-15T22:06:34.937Z,85.55
2023-04-15T22:09:01.639Z,85.17
2023-04-15T22:11:30.249Z,85.17
2023-04-15T22:13:57.913Z,84.65
2023-04-15T22:16:27.811Z,85.16
2023-04-15T22:18:55.319Z,84.92
2023-04-15T22:21:22.262Z,85.63
2023-04-15T22:23:49.442Z,85.46
2023-04-15T22:26:16.299Z,85.40
2023-04-15T22:28:43.583Z,85.11
2023-04-15T22:31:10.457Z,85.83
2023-04-15T22:33:37.350Z,86.33
2023-04-15T22:36:04.028Z,87.21
2023-04-15T22:38:30.905Z,87.98
2023-04-15T22:40:58.168Z,87.44
2023-04-15T22:43:25.875Z,86.81
2023-04-15T22:45:54.696Z,87.49
2023-04-15T22:48:21.510Z,86.79
2023-04-15T22:50:48.550Z,86.89
2023-04-15T22:53:16.633Z,87.22
2023-04-15T22:55:47.277Z,87.53
2023-04-15T22:58:15.064Z,86.86
2023-04-15T23:00:41.872Z,86.88
2023-04-15T23:03:08.746Z,87.38
2023-04-15T23:05:35.755Z,86.77
2023-04-15T23:08:03.268Z,87.05
2023-04-15T23:10:30.041Z,87.27
2023-04-15T23:12:56.807Z,87.24
2023-04-15T23:15:23.655Z,88.18
2023-04-15T23:17:50.482Z,87.95
2023-04-15T23:20:17.269Z,88.72
2023-04-15T23:22:44.131Z,88.66
2023-04-15T23:25:10.886Z,88.23
2023-04-15T23:27:37.703Z,87.87
2023-04-15T23:30:04.982Z,87.46
2023-04-15T23:32:31.726Z,87.66
2023-04-15T23:34:58.442Z,88.07
2023-04-15T23:37:25.177Z,88.07
2023-04-15T23:39:52.448Z,87.96
2023-04-15T23:42:19.269Z,88.45
2023-04-15T23:44:46.064Z,87.95
2023-04-15T23:47:12.751Z,87.58
2023-04-15T23:49:40.907Z,87.48
2023-04-15T23:52:07.932Z,88.01
2023-04-15T23:54:34.883Z,88.54
2023-04-15T23:57:01.787Z,87.95
2023-04-15T23:59:28.556Z,87.92
